createdAt,value
2018-03-11T00:01:12.498Z,30.69
2018-03-11T00:03:40.787Z,30.70
2018-03-11T00:06:09.117Z,30.71
2018-03-11T00:08:37.401Z,30.72
2018-03-11T00:11:05.688Z,30.72
2018-03-11T00:13:33.974Z,30.74
2018-03-11T00:16:02.289Z,30.75
2018-03-11T00:18:30.584Z,30.75
2018-03-11T00:20:58.930Z,30.76
2018-03-11T00:23:28.080Z,30.77
2018-03-11T00:25:56.369Z,30.77
2018-03-11T00:28:24.680Z,30.78
2018-03-11T00:30:53.032Z,30.79
2018-03-11T00:33:21.332Z,30.79
2018-03-11T00:35:49.660Z,30.81
2018-03-11T00:38:18.130Z,30.83
2018-03-11T00:40:46.433Z,30.83
2018-03-11T00:43:14.809Z,30.84
2018-03-11T00:45:43.250Z,30.85
2018-03-11T00:48:11.547Z,30.86
2018-03-11T00:50:39.863Z,30.88
2018-03-11T00:53:08.165Z,30.88
2018-03-11T00:55:36.501Z,30.88
2018-03-11T00:58:04.816Z,30.89
2018-03-11T01:00:33.128Z,30.89
2018-03-11T01:03:01.419Z,30.90
2018-03-11T01:05:29.733Z,30.91
2018-03-11T01:07:58.041Z,30.92
2018-03-11T01:10:26.338Z,30.93
2018-03-11T01:12:54.635Z,30.94
2018-03-11T01:15:22.946Z,30.94
2018-03-11T01:17:51.238Z,30.96
2018-03-11T01:20:19.561Z,30.96
2018-03-11T01:22:47.874Z,30.98
2018-03-11T01:25:16.198Z,30.98
2018-03-11T01:27:44.537Z,30.98
2018-03-11T01:30:12.834Z,31.00
2018-03-11T01:32:41.122Z,31.00
2018-03-11T01:35:09.417Z,31.01
2018-03-11T01:37:37.704Z,31.02
2018-03-11T01:40:06.000Z,31.04
2018-03-11T01:42:34.293Z,31.06
2018-03-11T01:45:02.586Z,31.06
2018-03-11T01:47:30.898Z,31.07
2018-03-11T01:49:59.253Z,31.09
2018-03-11T01:52:27.552Z,31.09
2018-03-11T01:54:55.856Z,31.09
2018-03-11T01:57:24.153Z,31.10
2018-03-11T01:59:52.441Z,31.12
2018-03-11T02:02:20.726Z,31.14
2018-03-11T02:04:49.006Z,31.15
2018-03-11T02:07:17.136Z,31.15
2018-03-11T02:09:45.432Z,31.16
2018-03-11T02:12:13.732Z,31.17
2018-03-11T02:14:42.022Z,31.16
2018-03-11T02:17:10.317Z,31.18
2018-03-11T02:19:38.597Z,31.20
2018-03-11T02:22:06.879Z,31.20
2018-03-11T02:24:35.166Z,31.21
2018-03-11T02:27:03.462Z,31.20
2018-03-11T02:29:31.757Z,31.21
2018-03-11T02:32:00.063Z,31.23
2018-03-11T02:34:28.363Z,31.23
2018-03-11T02:36:56.681Z,31.23
2018-03-11T02:39:24.971Z,31.24
2018-03-11T02:41:53.267Z,31.25
2018-03-11T02:44:21.589Z,31.25
2018-03-11T02:46:50.066Z,31.28
2018-03-11T02:49:18.381Z,31.29
2018-03-11T02:51:46.670Z,31.28
2018-03-11T02:54:14.978Z,31.30
2018-03-11T02:56:43.272Z,31.29
2018-03-11T02:59:11.581Z,31.29
2018-03-11T03:01:39.940Z,31.29
2018-03-11T03:04:08.463Z,31.27
2018-03-11T03:06:36.790Z,31.24
2018-03-11T03:09:04.610Z,31.21
2018-03-11T03:11:32.898Z,31.16
2018-03-11T03:14:01.205Z,31.12
2018-03-11T11:29:13.688Z,30.14
2018-03-11T11:31:41.848Z,29.70
2018-03-11T11:34:10.174Z,29.95
2018-03-11T11:36:38.527Z,30.09
2018-03-11T11:39:06.845Z,30.36
2018-03-11T11:41:35.163Z,30.37
2018-03-11T11:44:03.474Z,30.59
2018-03-11T11:46:31.788Z,30.68
2018-03-11T11:49:01.004Z,30.92
2018-03-11T11:51:29.146Z,30.66
2018-03-11T11:53:57.472Z,30.86
2018-03-11T11:56:25.809Z,31.25
2018-03-11T11:58:54.171Z,31.08
2018-03-11T12:01:22.491Z,31.01
2018-03-11T12:03:50.787Z,30.66
2018-03-11T12:06:19.111Z,30.62
2018-03-11T12:08:47.442Z,30.64
2018-03-11T12:11:15.774Z,30.78
2018-03-11T12:13:44.081Z,31.02
2018-03-11T12:16:12.427Z,31.01
2018-03-11T12:18:40.754Z,30.84
2018-03-11T12:21:09.113Z,30.77
2018-03-11T12:23:37.445Z,30.42
2018-03-11T12:26:05.779Z,30.79
2018-03-11T12:28:34.104Z,30.92
2018-03-11T12:31:02.502Z,30.53
2018-03-11T12:33:30.655Z,31.58
2018-03-11T12:35:58.963Z,30.07
2018-03-11T12:38:27.280Z,30.00
2018-03-11T12:40:55.579Z,29.80
2018-03-11T12:43:23.893Z,30.10
2018-03-11T12:45:52.198Z,29.95
2018-03-11T12:48:20.530Z,29.40
2018-03-11T12:50:48.855Z,29.28
2018-03-11T12:53:17.192Z,29.04
2018-03-11T12:55:45.522Z,29.18
2018-03-11T12:58:13.859Z,28.85
2018-03-11T13:00:42.382Z,28.76
2018-03-11T13:03:10.725Z,28.79
2018-03-11T13:05:39.023Z,28.80
2018-03-11T13:08:07.377Z,29.06
2018-03-11T13:10:35.785Z,28.91
2018-03-11T13:13:04.088Z,29.18
2018-03-11T13:15:32.406Z,28.95
2018-03-11T13:18:00.726Z,28.60
2018-03-11T13:23:29.504Z,28.35
2018-03-11T13:25:57.918Z,28.37
2018-03-11T13:28:37.668Z,28.24
2018-03-11T13:31:06.040Z,28.34
2018-03-11T13:33:45.866Z,28.23
2018-03-11T13:36:14.206Z,28.20
2018-03-11T13:38:53.865Z,28.29
2018-03-11T13:41:22.216Z,28.46
2018-03-11T13:43:50.551Z,28.47
2018-03-11T13:46:30.156Z,28.70
2018-03-11T13:48:58.494Z,28.52
2018-03-11T13:51:38.235Z,28.25
2018-03-11T13:54:06.568Z,28.48
2018-03-11T13:56:34.859Z,28.51
2018-03-11T13:59:03.205Z,28.44
2018-03-11T14:01:31.547Z,28.29
2018-03-11T14:03:59.996Z,28.14
2018-03-11T14:06:28.340Z,28.22
2018-03-11T14:08:57.007Z,28.47
2018-03-11T14:11:25.351Z,28.39
2018-03-11T14:13:54.008Z,28.34
2018-03-11T14:16:22.450Z,28.17
2018-03-11T14:18:50.924Z,28.45
2018-03-11T14:21:19.421Z,28.66
2018-03-11T14:23:47.756Z,28.75
2018-03-11T14:26:16.094Z,28.72
2018-03-11T14:28:44.460Z,28.66
2018-03-11T14:31:12.776Z,28.76
2018-03-11T14:33:41.113Z,28.52
2018-03-11T14:36:09.567Z,28.82
2018-03-11T14:38:38.778Z,29.02
2018-03-11T14:41:07.459Z,29.06
2018-03-11T14:43:36.253Z,28.79
2018-03-11T14:46:05.591Z,28.41
2018-03-11T14:48:35.002Z,28.55
2018-03-11T14:51:05.150Z,28.67
2018-03-11T14:53:33.547Z,28.77
2018-03-11T14:56:02.579Z,28.83
2018-03-11T14:58:31.016Z,28.88
2018-03-11T15:00:59.709Z,28.87
2018-03-11T15:03:28.082Z,28.78
2018-03-11T15:05:56.392Z,29.17
2018-03-11T15:08:24.773Z,29.40
2018-03-11T15:10:53.998Z,29.46
2018-03-11T15:13:23.377Z,29.66
2018-03-11T15:15:51.820Z,29.61
2018-03-11T15:18:20.275Z,29.67
2018-03-11T15:20:48.577Z,29.81
2018-03-11T15:23:17.178Z,29.99
2018-03-11T15:25:45.541Z,29.98
2018-03-11T15:28:13.850Z,29.96
2018-03-11T15:30:42.233Z,29.79
2018-03-11T15:33:11.112Z,29.91
2018-03-11T15:35:40.532Z,30.13
2018-03-11T15:38:08.998Z,30.28
2018-03-11T15:40:37.580Z,30.10
2018-03-11T15:43:05.781Z,30.38
2018-03-11T15:45:34.105Z,30.64
2018-03-11T15:48:02.453Z,30.76
2018-03-11T15:50:30.773Z,31.13
2018-03-11T15:52:59.115Z,31.44
2018-03-11T15:55:29.209Z,31.50
2018-03-11T15:57:58.512Z,31.59
2018-03-11T16:00:27.360Z,31.89
2018-03-11T16:02:56.591Z,32.17
2018-03-11T16:05:24.909Z,32.35
2018-03-11T16:07:54.210Z,32.28
2018-03-11T16:10:22.626Z,32.49
2018-03-11T16:12:50.797Z,32.46
2018-03-11T16:15:19.126Z,32.67
2018-03-11T16:17:47.451Z,32.92
2018-03-11T16:20:15.913Z,32.92
2018-03-11T16:22:44.274Z,33.29
2018-03-11T16:25:12.608Z,33.51
2018-03-11T16:27:40.975Z,34.16
2018-03-11T16:30:09.311Z,34.42
2018-03-11T16:32:37.695Z,34.67
2018-03-11T16:35:05.837Z,34.89
2018-03-11T16:37:34.489Z,35.11
2018-03-11T16:40:03.669Z,35.31
2018-03-11T16:42:32.381Z,35.65
2018-03-11T16:45:00.848Z,35.95
2018-03-11T16:47:30.079Z,36.17
2018-03-11T16:49:59.169Z,36.31
2018-03-11T16:52:27.520Z,36.65
2018-03-11T16:54:56.868Z,37.11
2018-03-11T16:57:25.979Z,37.37
2018-03-11T16:59:54.639Z,37.46
2018-03-11T17:02:23.088Z,37.90
2018-03-11T17:04:51.408Z,37.80
2018-03-11T17:07:19.733Z,38.32
2018-03-11T17:09:48.827Z,37.84
2018-03-11T17:12:18.030Z,37.79
2018-03-11T17:14:46.442Z,38.06
2018-03-11T17:17:15.525Z,38.58
2018-03-11T17:19:44.982Z,38.05
2018-03-11T17:22:13.399Z,37.83
2018-03-11T17:24:42.522Z,37.95
2018-03-11T17:27:10.698Z,38.05
2018-03-11T17:29:39.039Z,38.15
2018-03-11T17:32:08.619Z,38.16
2018-03-11T17:34:37.143Z,38.43
2018-03-11T17:37:06.048Z,38.16
2018-03-11T17:39:34.721Z,38.62
2018-03-11T17:42:03.273Z,38.63
2018-03-11T17:44:33.202Z,39.25
2018-03-11T17:47:02.417Z,39.34
2018-03-11T17:49:31.751Z,39.02
2018-03-11T17:52:01.656Z,38.79
2018-03-11T17:54:30.209Z,39.07
2018-03-11T17:56:59.455Z,38.21
2018-03-11T17:59:27.994Z,38.11
2018-03-11T18:01:56.398Z,37.47
2018-03-11T18:04:24.957Z,37.28
2018-03-11T18:06:53.552Z,37.40
2018-03-11T18:09:23.613Z,38.56
2018-03-11T18:11:52.045Z,38.67
2018-03-11T18:14:20.884Z,37.50
2018-03-11T18:16:49.973Z,38.44
2018-03-11T18:19:18.493Z,38.81
2018-03-11T18:21:46.856Z,39.31
2018-03-11T18:24:15.479Z,39.65
2018-03-11T18:26:43.994Z,39.41
2018-03-11T18:29:12.589Z,39.97
2018-03-11T18:31:40.897Z,40.27
2018-03-11T18:34:09.337Z,40.55
2018-03-11T18:36:37.782Z,41.36
2018-03-11T18:39:07.108Z,41.62
2018-03-11T18:41:36.686Z,41.90
2018-03-11T18:44:06.758Z,42.15
2018-03-11T18:46:36.059Z,42.04
2018-03-11T18:49:05.562Z,42.24
2018-03-11T18:51:34.773Z,42.58
2018-03-11T18:54:04.596Z,42.77
2018-03-11T18:56:33.235Z,42.52
2018-03-11T18:59:02.797Z,42.53
2018-03-11T19:01:31.668Z,42.51
2018-03-11T19:04:01.049Z,42.53
2018-03-11T19:06:29.987Z,41.69
2018-03-11T19:08:58.924Z,41.91
2018-03-11T19:11:28.364Z,41.90
2018-03-11T19:13:57.749Z,42.31
2018-03-11T19:16:26.188Z,42.47
2018-03-11T19:18:54.891Z,41.71
2018-03-11T19:21:23.571Z,41.84
2018-03-11T19:23:51.904Z,41.86
2018-03-11T19:26:20.433Z,42.18
2018-03-11T19:28:48.793Z,42.33
2018-03-11T19:31:17.473Z,42.37
2018-03-11T19:33:46.766Z,42.40
2018-03-11T19:36:15.173Z,42.55
2018-03-11T19:38:43.612Z,42.20
2018-03-11T19:41:11.905Z,42.11
2018-03-11T19:43:40.250Z,42.23
2018-03-11T19:46:08.801Z,42.54
2018-03-11T19:48:37.185Z,42.56
2018-03-11T19:51:06.511Z,42.48
2018-03-11T19:53:35.478Z,42.36
2018-03-11T19:56:05.475Z,42.49
2018-03-11T19:58:33.935Z,42.40
2018-03-11T20:01:02.289Z,42.47
2018-03-11T20:03:30.709Z,42.74
2018-03-11T20:05:59.234Z,42.58
2018-03-11T20:08:27.591Z,42.29
2018-03-11T20:10:55.970Z,42.54
2018-03-11T20:13:24.312Z,43.26
2018-03-11T20:15:53.732Z,43.50
2018-03-11T20:18:22.337Z,43.55
2018-03-11T20:20:50.662Z,43.41
2018-03-11T20:23:19.746Z,43.03
2018-03-11T20:25:48.047Z,43.28
2018-03-11T20:28:16.371Z,42.87
2018-03-11T20:30:44.778Z,42.83
2018-03-11T20:33:13.083Z,43.23
2018-03-11T20:35:41.406Z,43.94
2018-03-11T20:38:09.756Z,43.29
2018-03-11T20:40:38.051Z,43.66
2018-03-11T20:43:06.396Z,43.67
2018-03-11T20:45:34.755Z,43.22
2018-03-11T20:48:03.083Z,43.39
2018-03-11T20:50:31.450Z,44.69
2018-03-11T20:52:59.887Z,44.72
2018-03-11T20:55:28.185Z,44.55
2018-03-11T20:57:56.492Z,44.89
2018-03-11T21:00:24.824Z,45.24
2018-03-11T21:02:53.241Z,45.09
2018-03-11T21:08:04.261Z,44.76
2018-03-11T21:10:32.577Z,45.24
2018-03-11T21:13:00.923Z,45.87
2018-03-11T21:15:29.378Z,46.02
2018-03-11T21:17:57.682Z,45.78
2018-03-11T21:20:25.998Z,45.31
2018-03-11T21:22:54.320Z,45.27
2018-03-11T21:25:22.647Z,44.59
2018-03-11T21:27:50.944Z,45.30
2018-03-11T21:30:30.482Z,45.86
2018-03-11T21:32:58.817Z,47.10
2018-03-11T21:35:27.156Z,47.32
2018-03-11T21:37:55.473Z,46.98
2018-03-11T21:40:23.799Z,46.21
2018-03-11T21:42:52.104Z,45.87
2018-03-11T21:45:20.426Z,45.79
2018-03-11T21:47:48.723Z,46.28
2018-03-11T21:50:17.026Z,46.27
2018-03-11T21:52:45.355Z,46.79
2018-03-11T21:55:13.735Z,47.21
2018-03-11T21:57:42.027Z,47.55
2018-03-11T22:00:10.360Z,48.10
2018-03-11T22:02:38.650Z,48.12
2018-03-11T22:05:06.994Z,48.51
2018-03-11T22:07:35.371Z,47.97
2018-03-11T22:10:03.704Z,47.80
2018-03-11T22:12:32.034Z,48.17
2018-03-11T22:15:00.324Z,48.33
2018-03-11T22:17:28.613Z,48.08
2018-03-11T22:19:56.908Z,48.08
2018-03-11T22:22:25.278Z,48.02
2018-03-11T22:24:53.570Z,47.34
2018-03-11T22:27:21.870Z,47.64
2018-03-11T22:29:50.202Z,48.49
2018-03-11T22:32:18.550Z,48.97
2018-03-11T22:34:46.869Z,49.25
2018-03-11T22:37:15.163Z,49.39
2018-03-11T22:39:43.468Z,49.38
2018-03-11T22:42:11.792Z,49.53
2018-03-11T22:44:40.124Z,49.68
2018-03-11T22:47:08.469Z,49.76
2018-03-11T22:49:36.780Z,49.76
2018-03-11T22:52:05.128Z,50.10
2018-03-11T22:54:33.433Z,50.09
2018-03-11T22:57:01.796Z,50.07
2018-03-11T22:59:30.109Z,50.07
2018-03-11T23:01:58.460Z,49.70
2018-03-11T23:04:26.788Z,49.98
2018-03-11T23:06:55.095Z,49.72
2018-03-11T23:09:23.378Z,49.80
2018-03-11T23:11:51.720Z,49.88
2018-03-11T23:14:20.033Z,49.90
2018-03-11T23:16:48.326Z,49.98
2018-03-11T23:19:21.643Z,49.85
2018-03-11T23:21:50.126Z,49.75
2018-03-11T23:24:18.443Z,49.92
2018-03-11T23:26:46.733Z,50.84
2018-03-11T23:29:15.062Z,49.59
2018-03-11T23:31:43.360Z,49.32
2018-03-11T23:34:11.678Z,49.60
2018-03-11T23:36:40.017Z,49.21
2018-03-11T23:39:08.329Z,49.46
2018-03-11T23:41:36.672Z,49.59
2018-03-11T23:44:04.969Z,49.59
2018-03-11T23:46:33.275Z,49.35
2018-03-11T23:49:01.594Z,49.66
2018-03-11T23:51:30.069Z,49.70
2018-03-11T23:53:58.357Z,49.55
2018-03-11T23:56:26.659Z,49.64
2018-03-11T23:58:54.954Z,49.64
